Time;durP1;ratioP1;P1;durP2;ratioP2;P2;SDS_P1;SDS_P2;PMS_P1;PMS_P2;Temp;Humidity;BMP_temperature;BMP_pressure;BME280_temperature;BME280_humidity;BME280_pressure;Samples;Min_cycle;Max_cycle;Signal;HPM_P1;HPM_P2
2021/07/09 00:02:53;;;;;;;10.47;8.50;;;;;;;22.68;72.27;100415.70;153794;1101;103123;-66
2021/07/09 00:05:59;;;;;;;9.27;7.97;;;;;;;22.71;72.17;100434.30;153849;1101;103131;-66
2021/07/09 00:09:06;;;;;;;8.80;7.90;;;;;;;22.80;71.19;100442.95;153812;1101;103650;-66
2021/07/09 00:12:11;;;;;;;10.93;8.10;;;;;;;22.91;71.29;100463.13;153904;1096;103595;-66
2021/07/09 00:15:16;;;;;;;8.67;6.97;;;;;;;22.86;70.69;100458.36;154003;1101;103121;-67
2021/07/09 00:18:21;;;;;;;7.90;5.50;;;;;;;22.84;70.03;100455.03;153798;1101;104451;-66
2021/07/09 00:21:26;;;;;;;6.10;5.50;;;;;;;22.78;69.94;100446.97;153823;1101;103134;-66
2021/07/09 00:24:32;;;;;;;4.87;4.00;;;;;;;22.70;69.09;100467.98;153888;1101;103219;-68
2021/07/09 00:27:37;;;;;;;4.75;3.70;;;;;;;22.59;69.85;100467.91;153869;1101;103227;-78
2021/07/09 00:30:42;;;;;;;3.30;2.70;;;;;;;22.40;70.34;100473.34;153961;1093;103196;-77
2021/07/09 00:33:47;;;;;;;4.77;2.10;;;;;;;22.24;70.72;100495.66;153987;1101;103119;-75
2021/07/09 00:36:52;;;;;;;3.90;1.87;;;;;;;22.06;71.30;100507.34;154015;1101;103129;-73
2021/07/09 00:39:57;;;;;;;3.20;2.10;;;;;;;21.88;71.87;100519.82;154051;1101;103220;-73
2021/07/09 00:43:03;;;;;;;2.03;1.80;;;;;;;21.67;72.60;100507.44;153961;1101;103199;-73
2021/07/09 00:46:09;;;;;;;5.27;2.00;;;;;;;21.52;72.85;100525.92;153981;1101;103200;-73
2021/07/09 00:49:14;;;;;;;4.53;2.03;;;;;;;21.43;72.77;100544.31;153992;1101;103137;-74
2021/07/09 00:52:19;;;;;;;3.50;1.90;;;;;;;21.33;72.98;100533.10;153985;1101;103185;-72
2021/07/09 00:55:25;;;;;;;3.07;2.03;;;;;;;21.10;74.03;100523.61;154021;1093;103259;-75
2021/07/09 00:58:30;;;;;;;4.57;2.77;;;;;;;20.87;74.75;100488.03;154006;1101;103312;-74
2021/07/09 01:01:35;;;;;;;3.23;2.07;;;;;;;20.61;75.75;100484.35;153926;1093;103133;-75
2021/07/09 01:04:40;;;;;;;4.63;2.43;;;;;;;20.37;78.54;100451.45;153932;1093;103193;-73
2021/07/09 01:07:46;;;;;;;5.30;2.30;;;;;;;20.15;77.53;100455.46;153993;1101;103195;-74
2021/07/09 01:10:51;;;;;;;4.97;2.53;;;;;;;20.01;77.95;100446.53;153983;1101;103240;-74
2021/07/09 01:13:56;;;;;;;5.90;3.30;;;;;;;19.78;77.52;100436.14;153985;1101;103590;-74
2021/07/09 01:17:01;;;;;;;7.63;2.90;;;;;;;19.71;77.36;100433.41;153941;1101;103192;-75
2021/07/09 01:20:09;;;;;;;7.03;3.40;;;;;;;19.68;78.92;100433.00;153964;1101;103185;-74
2021/07/09 01:23:16;;;;;;;5.33;3.10;;;;;;;19.69;76.49;100434.64;153992;1101;103114;-74
2021/07/09 01:26:21;;;;;;;5.33;3.10;;;;;;;19.69;78.83;100418.41;153929;1101;103116;-73
2021/07/09 01:29:26;;;;;;;5.57;3.40;;;;;;;19.72;77.01;100393.66;153965;1101;103239;-72
2021/07/09 01:32:31;;;;;;;4.57;3.13;;;;;;;19.82;76.41;100399.47;154004;1094;103528;-74
2021/07/09 01:35:36;;;;;;;5.50;3.17;;;;;;;19.94;76.28;100392.39;154058;1101;103199;-75
2021/07/09 01:38:41;;;;;;;5.87;3.53;;;;;;;20.00;75.94;100383.41;154013;1101;103138;-75
2021/07/09 01:41:46;;;;;;;6.07;3.67;;;;;;;20.06;76.10;100364.66;153963;1101;103275;-76
2021/07/09 01:44:52;;;;;;;5.20;3.60;;;;;;;20.14;76.01;100372.54;153958;1093;103138;-74
2021/07/09 01:47:58;;;;;;;4.70;3.20;;;;;;;20.24;75.71;100363.96;153919;1101;103173;-73
2021/07/09 01:51:03;;;;;;;6.83;3.30;;;;;;;20.34;75.36;100345.36;153948;1101;103144;-74
2021/07/09 01:54:08;;;;;;;6.27;3.63;;;;;;;20.42;75.57;100330.73;154044;1101;103499;-72
2021/07/09 01:57:14;;;;;;;6.77;4.03;;;;;;;20.51;75.33;100334.86;153931;1093;103119;-74
2021/07/09 02:00:21;;;;;;;6.53;4.63;;;;;;;20.56;75.19;100326.92;154014;1093;103250;-74
2021/07/09 02:03:26;;;;;;;7.77;3.90;;;;;;;20.61;75.20;100310.02;154021;1101;103198;-75
2021/07/09 02:06:31;;;;;;;5.00;3.65;;;;;;;20.66;75.02;100316.45;153970;1093;103099;-75
2021/07/09 02:09:36;;;;;;;6.40;4.30;;;;;;;20.70;74.87;100316.85;153958;1101;103150;-74
2021/07/09 02:12:42;;;;;;;5.97;4.37;;;;;;;20.73;75.07;100309.11;153914;1101;103202;-72
2021/07/09 02:15:48;;;;;;;6.47;4.33;;;;;;;20.76;74.81;100283.43;153958;1101;103227;-73
2021/07/09 02:18:53;;;;;;;6.10;4.77;;;;;;;20.76;74.86;100262.56;153956;1101;103110;-73
2021/07/09 02:22:03;;;;;;;7.87;4.20;;;;;;;20.79;74.90;100243.15;154023;1101;103519;-70
2021/07/09 02:25:10;;;;;;;8.37;4.70;;;;;;;20.79;74.81;100234.19;153971;1101;103470;-70
2021/07/09 02:28:15;;;;;;;6.50;4.77;;;;;;;20.81;74.78;100179.74;153912;1101;103283;-71
2021/07/09 02:31:20;;;;;;;9.17;4.93;;;;;;;20.76;74.87;100185.81;153997;1101;103128;-72
2021/07/09 02:34:24;;;;;;;7.57;4.60;;;;;;;20.74;75.00;100191.45;153844;1093;103141;-72
2021/07/09 02:37:29;;;;;;;6.90;3.83;;;;;;;20.75;75.03;100203.97;153934;1101;104068;-72
2021/07/09 02:40:35;;;;;;;5.53;4.40;;;;;;;20.79;74.83;100193.52;154040;1093;103233;-72
2021/07/09 02:43:40;;;;;;;7.20;5.07;;;;;;;20.78;74.90;100184.56;154068;1101;103199;-71
2021/07/09 02:46:45;;;;;;;10.03;5.40;;;;;;;20.78;74.95;100198.12;154064;1093;103132;-71
2021/07/09 02:49:50;;;;;;;6.03;4.73;;;;;;;20.75;74.90;100222.13;154000;1093;103150;-72
2021/07/09 02:52:55;;;;;;;6.20;4.95;;;;;;;20.77;74.89;100204.58;153952;1101;103243;-73
2021/07/09 02:56:00;;;;;;;9.47;4.73;;;;;;;20.77;74.96;100199.16;153997;1101;103129;-73
2021/07/09 02:59:06;;;;;;;6.70;4.70;;;;;;;20.78;75.03;100195.41;153995;1096;103260;-73
2021/07/09 03:02:11;;;;;;;6.57;4.83;;;;;;;20.81;75.08;100185.16;154003;1101;103193;-74
2021/07/09 03:05:16;;;;;;;6.50;4.40;;;;;;;20.81;75.20;100177.03;154105;1101;103125;-72
2021/07/09 03:08:21;;;;;;;5.70;4.57;;;;;;;20.81;75.09;100166.18;153965;1101;103163;-74
2021/07/09 03:11:26;;;;;;;6.60;4.80;;;;;;;20.82;75.11;100174.07;154219;1093;103221;-72
2021/07/09 03:14:31;;;;;;;5.83;4.70;;;;;;;20.85;74.86;100170.10;154005;1093;103173;-74
2021/07/09 03:17:36;;;;;;;7.53;4.93;;;;;;;20.86;74.95;100182.59;154003;1101;103227;-73
2021/07/09 03:20:41;;;;;;;8.20;4.73;;;;;;;20.86;75.18;100188.02;153979;1101;103129;-74
2021/07/09 03:23:46;;;;;;;5.83;4.03;;;;;;;20.90;75.10;100167.53;153935;1101;103247;-74
2021/07/09 03:26:51;;;;;;;8.40;5.43;;;;;;;20.92;74.92;100160.00;153961;1101;103139;-74
2021/07/09 03:29:56;;;;;;;6.63;5.17;;;;;;;20.94;74.88;100166.88;153953;1101;103304;-74
2021/07/09 03:33:01;;;;;;;7.57;5.10;;;;;;;20.92;74.93;100168.98;153941;1093;103508;-74
2021/07/09 03:36:06;;;;;;;5.93;4.70;;;;;;;20.91;74.97;100177.34;153982;1094;103125;-74
2021/07/09 03:39:12;;;;;;;6.73;4.33;;;;;;;20.90;75.13;100181.95;153946;1093;103132;-74
2021/07/09 03:42:18;;;;;;;8.23;5.47;;;;;;;20.93;75.13;100192.33;153983;1101;103132;-74
2021/07/09 03:45:23;;;;;;;9.87;5.00;;;;;;;20.95;75.22;100189.41;153979;1101;103211;-73
2021/07/09 03:48:28;;;;;;;5.77;4.90;;;;;;;20.95;75.17;100183.98;154036;1101;103139;-74
2021/07/09 03:51:33;;;;;;;6.85;5.35;;;;;;;20.96;75.30;100177.52;153911;1101;103230;-74
2021/07/09 03:54:38;;;;;;;7.05;5.20;;;;;;;21.00;75.37;100173.30;154047;1101;103134;-71
2021/07/09 03:57:43;;;;;;;6.90;4.70;;;;;;;21.06;75.17;100164.26;154046;1101;103265;-74
2021/07/09 04:00:48;;;;;;;6.00;4.90;;;;;;;21.09;75.21;100169.22;153976;1101;103582;-73
2021/07/09 04:03:53;;;;;;;6.00;5.00;;;;;;;21.15;75.37;100165.63;154008;1101;103151;-74
2021/07/09 04:06:58;;;;;;;6.57;4.90;;;;;;;21.26;75.38;100176.78;154055;1101;103147;-74
2021/07/09 04:10:04;;;;;;;5.23;4.50;;;;;;;21.38;75.23;100162.24;153922;1101;103169;-74
2021/07/09 04:13:09;;;;;;;7.37;4.50;;;;;;;21.50;75.10;100173.20;153951;1101;103118;-74
2021/07/09 04:16:14;;;;;;;6.60;5.00;;;;;;;21.55;75.15;100176.04;153999;1093;103288;-75
2021/07/09 04:19:19;;;;;;;8.57;5.50;;;;;;;21.60;75.09;100179.98;154001;1101;103144;-75
2021/07/09 04:22:24;;;;;;;6.77;5.30;;;;;;;21.68;75.14;100171.52;153935;1101;103220;-75
2021/07/09 04:25:29;;;;;;;7.67;4.80;;;;;;;21.76;75.01;100163.88;153953;1093;103195;-74
2021/07/09 04:28:34;;;;;;;6.10;4.60;;;;;;;21.85;74.92;100150.81;153979;1093;103139;-75
2021/07/09 04:31:39;;;;;;;7.00;5.20;;;;;;;21.94;74.93;100154.02;153977;1101;103257;-75
2021/07/09 04:34:44;;;;;;;6.03;4.97;;;;;;;22.03;74.86;100158.08;154033;1101;103224;-74
2021/07/09 04:37:50;;;;;;;7.27;4.93;;;;;;;22.12;74.87;100166.74;153918;1101;103256;-74
2021/07/09 04:40:55;;;;;;;6.33;4.60;;;;;;;22.16;74.88;100200.55;153976;1101;103142;-74
2021/07/09 04:44:00;;;;;;;8.37;5.10;;;;;;;22.21;74.70;100197.98;154013;1101;103129;-73
2021/07/09 04:47:05;;;;;;;6.63;4.83;;;;;;;22.25;74.90;100204.63;154011;1101;103275;-74
2021/07/09 04:50:12;;;;;;;6.93;5.50;;;;;;;22.24;74.69;100230.11;154063;1101;103144;-74
2021/07/09 04:53:17;;;;;;;8.87;4.80;;;;;;;22.18;74.69;100209.30;154029;1101;103133;-75
2021/07/09 04:56:22;;;;;;;6.57;4.53;;;;;;;22.16;74.63;100189.67;153954;1093;103141;-74
2021/07/09 04:59:27;;;;;;;6.37;4.80;;;;;;;22.10;74.68;100207.73;153995;1101;103096;-74
2021/07/09 05:02:32;;;;;;;7.97;4.70;;;;;;;22.08;74.81;100170.98;153984;1093;103280;-74
2021/07/09 05:05:37;;;;;;;6.93;5.40;;;;;;;22.02;74.69;100171.89;153993;1101;103227;-74
2021/07/09 05:08:42;;;;;;;6.63;5.27;;;;;;;21.92;74.82;100167.86;153946;1101;103146;-74
2021/07/09 05:11:47;;;;;;;6.37;5.10;;;;;;;21.86;74.93;100167.94;153992;1093;103215;-74
2021/07/09 05:14:52;;;;;;;8.43;5.30;;;;;;;21.82;74.97;100153.98;154024;1093;103220;-74
2021/07/09 05:17:57;;;;;;;8.03;5.10;;;;;;;21.81;75.00;100155.05;154010;1101;103266;-73
2021/07/09 05:21:03;;;;;;;7.93;5.40;;;;;;;21.79;75.04;100151.73;153949;1101;103226;-73
2021/07/09 05:24:10;;;;;;;6.07;4.67;;;;;;;21.74;75.14;100155.13;154006;1101;103224;-73
2021/07/09 05:27:16;;;;;;;7.83;5.07;;;;;;;21.76;75.15;100144.04;154049;1101;103144;-74
2021/07/09 05:30:21;;;;;;;6.80;5.15;;;;;;;21.75;75.19;100135.07;153970;1096;103250;-73
2021/07/09 05:33:26;;;;;;;8.67;5.60;;;;;;;21.76;75.32;100173.91;153957;1094;103442;-74
2021/07/09 05:36:31;;;;;;;5.90;5.30;;;;;;;21.79;75.34;100221.50;153990;1101;103229;-73
2021/07/09 05:39:36;;;;;;;8.37;5.43;;;;;;;21.79;75.54;100349.16;154063;1101;103128;-74
2021/07/09 05:42:41;;;;;;;10.27;5.77;;;;;;;21.79;75.41;100388.04;153934;1101;103181;-73
2021/07/09 05:45:46;;;;;;;7.83;5.93;;;;;;;21.78;75.37;100383.65;154005;1101;103335;-74
2021/07/09 05:48:51;;;;;;;8.33;5.90;;;;;;;21.76;75.32;100374.90;153967;1101;103256;-74
2021/07/09 05:51:56;;;;;;;10.00;6.40;;;;;;;21.73;75.33;100351.73;154016;1097;103195;-74
2021/07/09 05:55:01;;;;;;;8.00;5.40;;;;;;;21.72;75.25;100338.38;154065;1101;103218;-73
2021/07/09 05:58:06;;;;;;;7.97;5.10;;;;;;;21.74;75.22;100330.84;153979;1101;103125;-74
2021/07/09 06:01:11;;;;;;;9.60;5.60;;;;;;;21.77;75.29;100297.80;154005;1101;103131;-73
2021/07/09 06:04:17;;;;;;;7.77;5.63;;;;;;;21.81;75.38;100290.86;153964;1096;103214;-73
2021/07/09 06:07:22;;;;;;;7.57;6.03;;;;;;;21.80;75.38;100278.32;154046;1101;103113;-73
2021/07/09 06:10:27;;;;;;;7.55;5.70;;;;;;;21.81;75.25;100268.31;154033;1095;103518;-73
2021/07/09 06:13:32;;;;;;;6.93;5.37;;;;;;;21.81;75.74;100296.30;153964;1101;103491;-74
2021/07/09 06:16:37;;;;;;;7.27;5.63;;;;;;;21.86;75.71;100269.26;153977;1101;103113;-74
2021/07/09 06:19:42;;;;;;;6.80;5.87;;;;;;;21.94;75.53;100252.67;153932;1101;103253;-75
2021/07/09 06:22:47;;;;;;;11.80;7.90;;;;;;;22.05;75.61;100209.48;153973;1101;103295;-75
2021/07/09 06:25:52;;;;;;;11.10;8.30;;;;;;;22.28;75.60;100184.30;153955;1093;103195;-74
2021/07/09 06:28:57;;;;;;;11.43;8.50;;;;;;;22.63;75.69;100181.65;153942;1101;103219;-74
2021/07/09 06:32:02;;;;;;;9.10;8.20;;;;;;;23.10;75.63;100173.55;153975;1101;103148;-74
2021/07/09 06:35:10;;;;;;;8.17;7.03;;;;;;;23.55;75.33;100168.50;154055;1101;103285;-73
2021/07/09 06:38:15;;;;;;;6.30;5.37;;;;;;;23.99;75.10;100174.30;154044;1101;103161;-73
2021/07/09 06:41:20;;;;;;;7.67;5.27;;;;;;;24.36;75.26;100188.32;153975;1101;103486;-73
2021/07/09 06:44:25;;;;;;;6.10;5.50;;;;;;;24.72;74.87;100188.96;153939;1101;103246;-73
2021/07/09 06:47:30;;;;;;;5.87;5.10;;;;;;;25.06;74.55;100181.57;154004;1101;103187;-73
2021/07/09 06:50:35;;;;;;;6.10;5.33;;;;;;;25.42;74.34;100193.03;153958;1093;103259;-73
2021/07/09 06:53:40;;;;;;;6.13;5.43;;;;;;;25.81;73.75;100184.75;154097;1101;103125;-74
2021/07/09 06:56:45;;;;;;;7.27;5.20;;;;;;;26.02;73.58;100174.90;153959;1093;103196;-74
2021/07/09 06:59:50;;;;;;;6.97;4.93;;;;;;;26.24;73.61;100174.83;153963;1101;103154;-73
2021/07/09 07:02:55;;;;;;;6.37;5.50;;;;;;;26.51;73.32;100179.45;153983;1101;103080;-73
2021/07/09 07:06:00;;;;;;;5.77;5.27;;;;;;;26.68;72.75;100203.16;153964;1093;103502;-74
2021/07/09 07:09:05;;;;;;;6.67;5.50;;;;;;;26.60;72.67;100218.16;153986;1101;103200;-73
2021/07/09 07:12:11;;;;;;;6.63;5.93;;;;;;;26.57;72.64;100241.34;153979;1101;103148;-73
2021/07/09 07:15:16;;;;;;;8.13;5.80;;;;;;;26.57;72.27;100252.28;153925;1101;103133;-73
2021/07/09 07:18:21;;;;;;;6.37;5.10;;;;;;;26.74;72.30;100256.86;153978;1093;103167;-73
2021/07/09 07:21:26;;;;;;;5.70;5.10;;;;;;;26.98;72.57;100287.44;154050;1101;103304;-73
2021/07/09 07:24:31;;;;;;;6.77;6.03;;;;;;;27.25;71.83;100312.05;154081;1101;103135;-73
2021/07/09 07:27:36;;;;;;;6.67;6.07;;;;;;;27.38;71.49;100351.88;153954;1101;103160;-74
2021/07/09 07:30:42;;;;;;;7.87;6.60;;;;;;;26.97;69.26;100360.55;153952;1101;103106;-74
2021/07/09 07:33:47;;;;;;;8.75;5.75;;;;;;;26.54;70.85;100345.87;154003;1101;103129;-74
2021/07/09 07:36:52;;;;;;;6.93;5.20;;;;;;;26.36;70.93;100330.59;153943;1094;103349;-75
2021/07/09 07:39:57;;;;;;;6.77;5.60;;;;;;;26.25;70.75;100326.94;154013;1101;103572;-75
2021/07/09 07:43:03;;;;;;;6.77;5.00;;;;;;;26.17;70.45;100324.63;153965;1101;103131;-74
2021/07/09 07:46:08;;;;;;;7.20;6.20;;;;;;;26.13;70.39;100328.95;154002;1101;103132;-74
2021/07/09 07:49:13;;;;;;;6.47;5.83;;;;;;;25.93;69.70;100313.13;154074;1101;103190;-74
2021/07/09 07:52:18;;;;;;;7.03;5.67;;;;;;;25.83;69.70;100280.99;154008;1093;103282;-74
2021/07/09 07:55:24;;;;;;;6.70;6.00;;;;;;;25.80;70.27;100259.62;154041;1093;103559;-74
2021/07/09 07:58:29;;;;;;;7.33;6.30;;;;;;;25.66;69.88;100266.55;153961;1093;103202;-74
2021/07/09 08:01:34;;;;;;;6.27;5.67;;;;;;;25.57;70.10;100270.80;153969;1101;103195;-74
2021/07/09 08:04:39;;;;;;;6.47;5.67;;;;;;;25.59;69.42;100231.20;153970;1093;103189;-74
2021/07/09 08:07:45;;;;;;;7.37;5.90;;;;;;;25.69;70.31;100225.04;153976;1101;103221;-73
2021/07/09 08:10:50;;;;;;;6.90;5.70;;;;;;;25.95;68.80;100222.66;153997;1101;103185;-73
2021/07/09 08:13:55;;;;;;;8.15;5.40;;;;;;;26.18;69.48;100222.36;154009;1093;103125;-74
2021/07/09 08:17:00;;;;;;;6.23;5.40;;;;;;;26.41;68.35;100223.97;154006;1101;103110;-74
2021/07/09 08:20:07;;;;;;;6.43;5.83;;;;;;;26.40;68.19;100227.77;153985;1093;103132;-74
2021/07/09 08:23:12;;;;;;;6.63;5.93;;;;;;;26.37;67.47;100209.16;153972;1101;103202;-74
2021/07/09 08:26:17;;;;;;;7.45;6.75;;;;;;;26.28;67.91;100220.83;154008;1093;103142;-74
2021/07/09 08:29:22;;;;;;;9.40;6.90;;;;;;;26.21;68.56;100226.48;153999;1101;103115;-74
2021/07/09 08:32:27;;;;;;;7.67;6.87;;;;;;;26.12;67.82;100228.88;153962;1101;103045;-75
2021/07/09 08:35:32;;;;;;;7.90;7.20;;;;;;;26.11;69.19;100235.41;153972;1101;103303;-74
2021/07/09 08:38:37;;;;;;;7.73;6.83;;;;;;;26.31;69.28;100228.50;153947;1093;103303;-74
2021/07/09 08:41:43;;;;;;;7.17;6.33;;;;;;;26.35;68.29;100210.48;154004;1093;103131;-74
2021/07/09 08:44:48;;;;;;;6.77;6.03;;;;;;;26.32;68.51;100205.55;154070;1093;103220;-74
2021/07/09 08:47:54;;;;;;;7.80;6.53;;;;;;;26.45;68.51;100199.65;153938;1093;103125;-74
2021/07/09 08:51:01;;;;;;;8.30;7.17;;;;;;;26.57;68.04;100178.40;154016;1093;103186;-75
2021/07/09 08:54:12;;;;;;;8.90;6.83;;;;;;;26.59;68.09;100159.84;153988;1093;103279;-74
2021/07/09 08:57:17;;;;;;;7.00;6.30;;;;;;;26.69;68.48;100161.01;154106;1093;103106;-74
2021/07/09 09:00:45;;;;;;;10.20;7.40;;;;;;;26.78;67.99;100153.96;153950;1101;103192;-74
2021/07/09 09:04:05;;;;;;;11.37;7.97;;;;;;;26.88;68.04;100154.02;154050;1101;103048;-74
2021/07/09 09:07:12;;;;;;;9.30;8.40;;;;;;;26.97;67.37;100146.97;154004;1093;103117;-74
2021/07/09 09:10:31;;;;;;;9.20;8.30;;;;;;;27.00;67.93;100132.75;154017;1093;103275;-74
2021/07/09 09:13:38;;;;;;;9.37;8.37;;;;;;;27.06;67.87;100138.24;153987;1101;103295;-74
2021/07/09 09:16:43;;;;;;;8.90;8.00;;;;;;;27.16;67.87;100146.53;153943;1096;103228;-74
2021/07/09 09:20:13;;;;;;;8.97;7.70;;;;;;;27.27;68.14;100142.76;153959;1101;103136;-74
2021/07/09 09:23:18;;;;;;;9.80;8.90;;;;;;;27.40;68.24;100134.05;153969;1096;103192;-74
2021/07/09 09:26:44;;;;;;;9.73;8.73;;;;;;;27.55;67.73;100137.95;153900;1096;103264;-74
2021/07/09 09:29:49;;;;;;;8.75;7.85;;;;;;;27.67;67.88;100149.50;153960;1095;103117;-74
2021/07/09 09:32:54;;;;;;;8.70;7.90;;;;;;;27.75;67.54;100154.48;153947;1101;103223;-74
2021/07/09 09:35:59;;;;;;;8.80;8.00;;;;;;;27.77;67.36;100155.03;153915;1096;103131;-74
2021/07/09 09:39:17;;;;;;;9.97;8.47;;;;;;;27.85;67.33;100161.05;153921;1101;103195;-75
2021/07/09 09:42:24;;;;;;;9.20;8.30;;;;;;;27.91;67.44;100165.52;154001;1101;103182;-74
2021/07/09 09:45:29;;;;;;;9.70;8.80;;;;;;;28.02;66.94;100171.83;154022;1096;103125;-74
2021/07/09 09:48:44;;;;;;;9.27;8.47;;;;;;;28.15;66.35;100172.13;153938;1096;103215;-74
2021/07/09 09:51:53;;;;;;;10.00;8.37;;;;;;;28.16;66.65;100167.48;153901;1096;103190;-75
2021/07/09 09:54:58;;;;;;;9.47;8.30;;;;;;;28.22;67.08;100162.83;154000;1101;103204;-74
2021/07/09 09:58:15;;;;;;;11.17;8.80;;;;;;;28.30;67.10;100162.28;153913;1095;103104;-74
2021/07/09 10:01:31;;;;;;;9.27;8.37;;;;;;;28.46;67.07;100154.86;153995;1101;103130;-74
2021/07/09 10:04:37;;;;;;;9.53;8.57;;;;;;;28.68;66.77;100149.95;154082;1096;103119;-75
2021/07/09 10:07:42;;;;;;;9.25;8.40;;;;;;;28.83;66.39;100146.36;154019;1101;103155;-74
2021/07/09 10:10:48;;;;;;;9.50;8.60;;;;;;;28.87;66.20;100155.69;153915;1096;103129;-74
2021/07/09 10:13:53;;;;;;;9.83;8.80;;;;;;;28.98;66.51;100146.33;153943;1101;103390;-74
2021/07/09 10:17:01;;;;;;;9.17;8.47;;;;;;;29.06;66.26;100133.11;153976;1101;103206;-75
2021/07/09 10:20:08;;;;;;;10.40;9.33;;;;;;;29.07;66.07;100126.52;153971;1096;103194;-76
2021/07/09 10:23:15;;;;;;;9.47;8.67;;;;;;;29.09;65.94;100135.30;153946;1096;103195;-75
2021/07/09 10:26:21;;;;;;;9.30;8.43;;;;;;;29.04;65.54;100135.31;153968;1096;103579;-75
2021/07/09 10:29:28;;;;;;;9.77;8.77;;;;;;;29.06;65.92;100133.95;153990;1096;103267;-75
2021/07/09 10:32:35;;;;;;;10.07;9.07;;;;;;;29.09;65.50;100138.05;154158;1101;103128;-74
2021/07/09 10:35:41;;;;;;;9.40;8.60;;;;;;;29.12;65.38;100130.11;154047;1096;103127;-75
2021/07/09 10:38:53;;;;;;;9.40;8.60;;;;;;;29.13;65.53;100114.44;153971;1101;103212;-74
2021/07/09 10:42:11;;;;;;;9.90;9.10;;;;;;;29.20;65.78;100117.72;153980;1101;103125;-75
2021/07/09 10:45:23;;;;;;;9.50;8.60;;;;;;;29.23;65.13;100114.39;153964;1101;103279;-75
2021/07/09 10:48:38;;;;;;;10.30;9.30;;;;;;;29.24;65.15;100118.80;154061;1101;103199;-75
2021/07/09 10:51:52;;;;;;;9.80;8.90;;;;;;;29.31;64.99;100108.33;154056;1101;103126;-75
2021/07/09 10:55:00;;;;;;;10.37;8.80;;;;;;;29.36;64.89;100110.22;154014;1101;103190;-75
2021/07/09 10:58:41;;;;;;;11.20;10.20;;;;;;;29.40;64.84;100099.48;153958;1101;103200;-75
2021/07/09 11:01:44;;;;;;;;;;;;;;;29.53;64.93;100102.44;153801;1101;103283;-75
2021/07/09 11:04:49;;;;;;;9.67;8.77;;;;;;;29.60;64.77;100101.30;153961;1101;103123;-75
2021/07/09 11:08:14;;;;;;;10.00;9.07;;;;;;;29.65;64.35;100099.34;153996;1101;103193;-75
2021/07/09 11:11:30;;;;;;;9.87;9.07;;;;;;;29.72;64.62;100085.30;153929;1101;103231;-75
2021/07/09 11:14:37;;;;;;;10.97;9.87;;;;;;;29.81;64.32;100091.03;153992;1101;103225;-75
2021/07/09 11:17:45;;;;;;;11.17;10.17;;;;;;;29.81;63.90;100082.77;153969;1101;103195;-76
2021/07/09 11:20:50;;;;;;;11.47;10.30;;;;;;;29.86;63.46;100089.06;154019;1101;103563;-75
2021/07/09 11:23:55;;;;;;;11.50;10.40;;;;;;;29.88;63.84;100080.53;154045;1101;103189;-76
2021/07/09 11:27:02;;;;;;;10.90;9.80;;;;;;;29.98;63.89;100079.63;153946;1101;103218;-75
2021/07/09 11:30:10;;;;;;;10.90;9.85;;;;;;;29.97;63.22;100073.31;153975;1096;103237;-76
2021/07/09 11:33:23;;;;;;;10.70;9.73;;;;;;;30.05;63.01;100075.45;153925;1101;103351;-76
2021/07/09 11:36:28;;;;;;;10.67;9.67;;;;;;;30.15;63.24;100080.86;153981;1101;103132;-76
2021/07/09 11:39:35;;;;;;;10.97;10.07;;;;;;;30.17;63.10;100077.82;154000;1101;103222;-76
2021/07/09 11:42:41;;;;;;;11.00;10.03;;;;;;;30.31;62.84;100083.47;153942;1101;103249;-76
2021/07/09 11:45:46;;;;;;;11.37;10.27;;;;;;;30.55;62.36;100071.74;154289;1101;103113;-76
2021/07/09 11:48:51;;;;;;;11.30;10.20;;;;;;;30.68;62.25;100069.11;154563;1101;103212;-76
2021/07/09 11:51:59;;;;;;;11.50;10.40;;;;;;;30.84;62.30;100069.75;153985;1101;103200;-76
2021/07/09 11:55:08;;;;;;;12.20;10.70;;;;;;;31.04;61.93;100063.20;153986;1096;103251;-76
2021/07/09 11:58:13;;;;;;;11.20;10.23;;;;;;;31.25;61.44;100069.27;153927;1095;103195;-76
2021/07/09 12:01:19;;;;;;;11.67;10.67;;;;;;;31.37;61.47;100073.53;153969;1101;103343;-76
2021/07/09 12:04:32;;;;;;;10.97;9.97;;;;;;;31.40;61.20;100076.53;153960;1096;103177;-76
2021/07/09 12:07:38;;;;;;;10.87;9.83;;;;;;;31.35;60.84;100070.26;154125;1101;103133;-76
2021/07/09 12:10:43;;;;;;;10.63;9.73;;;;;;;31.31;60.68;100068.11;153980;1101;103196;-76
2021/07/09 12:14:04;;;;;;;11.47;10.13;;;;;;;31.25;60.75;100061.00;153990;1095;103195;-76
2021/07/09 12:17:16;;;;;;;11.47;10.20;;;;;;;31.20;60.41;100052.82;154058;1097;103151;-76
2021/07/09 12:20:23;;;;;;;11.70;9.53;;;;;;;31.25;60.10;100049.16;153919;1101;103288;-76
2021/07/09 12:23:33;;;;;;;9.85;9.05;;;;;;;31.30;60.36;100038.89;154006;1096;103610;-76
2021/07/09 12:26:38;;;;;;;10.70;9.73;;;;;;;31.40;60.04;100037.11;153945;1096;103132;-76
2021/07/09 12:29:44;;;;;;;10.47;9.57;;;;;;;31.34;59.39;100041.06;153959;1096;103791;-76
2021/07/09 12:32:58;;;;;;;10.87;9.80;;;;;;;31.19;59.37;100026.36;154057;1096;103563;-76
2021/07/09 12:36:04;;;;;;;10.45;9.45;;;;;;;31.08;59.55;100031.20;153999;1101;103250;-76
2021/07/09 12:39:09;;;;;;;10.57;9.47;;;;;;;30.97;59.44;100028.84;154025;1101;103547;-76
2021/07/09 12:42:22;;;;;;;9.93;9.13;;;;;;;30.89;59.48;100022.03;154017;1101;103193;-76
2021/07/09 12:45:33;;;;;;;10.57;9.57;;;;;;;30.85;59.18;100019.06;154093;1094;103171;-76
2021/07/09 12:48:42;;;;;;;10.00;9.00;;;;;;;30.83;59.14;100013.03;154140;1096;103270;-76
2021/07/09 12:51:47;;;;;;;9.83;8.93;;;;;;;30.76;58.55;100012.56;153933;1101;103279;-76
2021/07/09 12:54:52;;;;;;;9.90;9.00;;;;;;;30.73;58.90;100010.38;154014;1101;103195;-76
2021/07/09 12:57:57;;;;;;;10.60;9.70;;;;;;;30.73;58.52;100013.95;153935;1096;103235;-76
2021/07/09 13:01:10;;;;;;;10.63;9.53;;;;;;;30.70;58.79;100016.50;153984;1101;103139;-77
2021/07/09 13:04:23;;;;;;;10.10;9.10;;;;;;;30.66;58.70;100001.64;153980;1096;103279;-76
2021/07/09 13:07:28;;;;;;;10.00;9.00;;;;;;;30.71;58.45;99998.84;153976;1096;103230;-76
2021/07/09 13:10:33;;;;;;;10.00;9.10;;;;;;;30.87;58.44;99974.67;153962;1101;103247;-75
2021/07/09 13:13:39;;;;;;;10.17;9.17;;;;;;;31.03;57.93;99959.62;153980;1096;103107;-75
2021/07/09 13:16:55;;;;;;;10.63;9.17;;;;;;;31.05;57.45;99938.09;154018;1101;103120;-75
2021/07/09 13:20:02;;;;;;;10.85;9.75;;;;;;;30.95;57.40;99946.52;154021;1101;103257;-75
2021/07/09 13:23:15;;;;;;;10.00;9.10;;;;;;;30.82;57.46;99944.45;153980;1101;103190;-75
2021/07/09 13:26:20;;;;;;;10.87;9.90;;;;;;;30.68;57.58;99944.37;154036;1101;103213;-75
2021/07/09 13:29:27;;;;;;;10.37;9.47;;;;;;;30.52;57.45;99921.69;153957;1101;103129;-75
2021/07/09 13:32:36;;;;;;;11.77;9.17;;;;;;;30.43;57.68;99912.44;153956;1101;103115;-75
2021/07/09 13:35:43;;;;;;;9.67;8.67;;;;;;;30.32;57.31;99920.02;154075;1101;103250;-75
2021/07/09 13:38:49;;;;;;;9.87;8.97;;;;;;;30.25;57.43;99942.33;153972;1101;103215;-75
2021/07/09 13:41:54;;;;;;;10.27;9.27;;;;;;;30.19;57.42;99937.19;153992;1101;103224;-75
2021/07/09 13:44:59;;;;;;;10.17;9.10;;;;;;;30.07;57.66;99952.16;153970;1096;103163;-75
2021/07/09 13:48:05;;;;;;;10.70;9.70;;;;;;;29.93;57.93;99959.47;153955;1101;103182;-75
2021/07/09 13:51:14;;;;;;;9.50;8.70;;;;;;;29.76;57.84;99926.89;153970;1101;103297;-75
2021/07/09 13:54:19;;;;;;;10.03;9.03;;;;;;;29.57;57.96;99913.00;154053;1101;103569;-75
2021/07/09 13:57:24;;;;;;;10.43;9.43;;;;;;;29.39;57.88;99913.69;154027;1096;103192;-74
2021/07/09 14:00:29;;;;;;;10.35;9.35;;;;;;;29.20;58.03;99930.88;154008;1101;103115;-75
2021/07/09 14:03:35;;;;;;;10.60;9.50;;;;;;;29.02;58.46;99942.48;153953;1101;103128;-75
2021/07/09 14:06:40;;;;;;;9.73;8.93;;;;;;;28.85;58.39;99959.31;153955;1101;103564;-75